Time;durP1;ratioP1;P1;durP2;ratioP2;P2;SDS_P1;SDS_P2;PMS_P1;PMS_P2;Temp;Humidity;BMP_temperature;BMP_pressure;BME280_temperature;BME280_humidity;BME280_pressure;Samples;Min_cycle;Max_cycle;Signal;HPM_P1;HPM_P2
2023/09/02 00:00:43;;;;;;;9.33;7.50;;;13.50;99.90;;;;;;5032461;28;20244;-74
2023/09/02 00:03:10;;;;;;;7.80;6.93;;;13.60;99.90;;;;;;5032684;28;20202;-73
2023/09/02 00:05:37;;;;;;;11.47;8.20;;;13.50;99.90;;;;;;5032300;28;20654;-73
2023/09/02 00:08:04;;;;;;;8.23;7.13;;;13.50;99.90;;;;;;5032526;28;20202;-74
2023/09/02 00:10:30;;;;;;;8.60;7.10;;;13.50;99.90;;;;;;5032212;28;20260;-73
2023/09/02 00:12:57;;;;;;;7.67;6.87;;;13.40;99.90;;;;;;5032287;28;20205;-73
2023/09/02 00:15:24;;;;;;;10.10;7.30;;;13.40;99.90;;;;;;5032146;28;20275;-73
2023/09/02 00:17:52;;;;;;;7.43;6.57;;;13.40;99.90;;;;;;5032252;28;20804;-73
2023/09/02 00:20:20;;;;;;;14.00;7.97;;;13.30;99.90;;;;;;5032399;28;20198;-73
2023/09/02 00:22:47;;;;;;;9.73;6.93;;;13.30;99.90;;;;;;5032082;28;20226;-73
2023/09/02 00:25:14;;;;;;;9.63;7.50;;;13.30;99.90;;;;;;5032237;28;20250;-73
2023/09/02 00:27:40;;;;;;;9.13;7.80;;;13.30;99.90;;;;;;5039244;28;20257;-73
2023/09/02 00:30:08;;;;;;;13.43;7.80;;;13.30;99.90;;;;;;5032192;28;20198;-74
2023/09/02 00:32:34;;;;;;;13.93;8.20;;;13.20;99.90;;;;;;5032381;28;20198;-73
2023/09/02 00:35:02;;;;;;;8.13;7.10;;;13.20;99.90;;;;;;5032162;28;20288;-73
2023/09/02 00:37:29;;;;;;;9.47;7.23;;;13.20;99.90;;;;;;5032085;28;20657;-73
2023/09/02 00:39:56;;;;;;;9.10;7.00;;;13.10;99.90;;;;;;5031949;28;20658;-73
2023/09/02 00:42:26;;;;;;;8.80;7.23;;;13.20;99.90;;;;;;5031944;28;20202;-73
2023/09/02 00:44:52;;;;;;;10.57;7.63;;;13.30;99.90;;;;;;5032498;28;20199;-73
2023/09/02 00:47:19;;;;;;;11.07;7.60;;;13.30;99.90;;;;;;5034306;28;20662;-73
2023/09/02 00:49:46;;;;;;;11.13;7.90;;;13.30;99.90;;;;;;5035841;28;20198;-74
2023/09/02 00:52:14;;;;;;;8.70;7.47;;;13.20;99.90;;;;;;5035813;28;20198;-73
2023/09/02 00:54:41;;;;;;;13.80;8.37;;;13.20;99.90;;;;;;5035675;28;20227;-73
2023/09/02 00:57:08;;;;;;;9.80;7.67;;;13.10;99.90;;;;;;5035533;28;20198;-73
2023/09/02 00:59:35;;;;;;;12.03;7.43;;;13.20;99.90;;;;;;5035884;28;20198;-73
2023/09/02 01:02:05;;;;;;;8.87;7.40;;;13.00;99.90;;;;;;5035659;28;20202;-73
2023/09/02 01:04:32;;;;;;;12.03;7.50;;;13.10;99.90;;;;;;5035600;28;20199;-73
2023/09/02 01:07:01;;;;;;;10.80;7.57;;;13.00;99.90;;;;;;5035494;28;20202;-73
2023/09/02 01:09:30;;;;;;;8.27;6.63;;;12.90;99.90;;;;;;5034982;28;20202;-73
2023/09/02 01:11:56;;;;;;;8.60;6.53;;;12.90;99.90;;;;;;5035511;28;20249;-73
2023/09/02 01:14:23;;;;;;;10.30;7.37;;;13.00;99.90;;;;;;5035392;28;20268;-73
2023/09/02 01:16:50;;;;;;;10.37;6.97;;;13.00;99.90;;;;;;5035426;28;20203;-73
2023/09/02 01:19:18;;;;;;;7.73;6.70;;;12.90;99.90;;;;;;5035267;28;20717;-73
2023/09/02 01:21:59;;;;;;;9.67;7.10;;;12.90;99.90;;;;;;5035144;28;20237;-74
2023/09/02 01:24:44;;;;;;;9.00;7.07;;;12.90;99.90;;;;;;5035451;28;20202;-73
2023/09/02 01:27:17;;;;;;;12.20;6.97;;;13.00;99.90;;;;;;5035256;28;20259;-72
2023/09/02 01:29:50;;;;;;;8.77;6.53;;;13.00;99.90;;;;;;5035117;28;20190;-73
2023/09/02 01:32:18;;;;;;;9.30;6.83;;;12.90;99.90;;;;;;5035104;28;20202;-73
2023/09/02 01:34:46;;;;;;;8.53;7.47;;;12.90;99.90;;;;;;5035089;28;20288;-73
2023/09/02 01:37:14;;;;;;;11.53;8.10;;;13.00;99.90;;;;;;5034927;28;20205;-73
2023/09/02 01:39:43;;;;;;;12.13;7.47;;;13.00;99.90;;;;;;5034924;28;20198;-73
2023/09/02 01:42:11;;;;;;;11.97;7.47;;;13.00;99.90;;;;;;5034984;28;20287;-73
2023/09/02 01:44:40;;;;;;;9.23;7.13;;;13.00;99.90;;;;;;5034708;28;20641;-74
2023/09/02 01:47:07;;;;;;;8.07;7.27;;;13.00;99.90;;;;;;5034616;28;20206;-73
2023/09/02 01:49:34;;;;;;;9.00;6.63;;;12.90;99.90;;;;;;5034863;28;20202;-74
2023/09/02 01:52:02;;;;;;;9.97;7.07;;;12.90;99.90;;;;;;5034701;28;20202;-73
2023/09/02 01:54:29;;;;;;;7.33;6.63;;;12.90;99.90;;;;;;5034718;28;20265;-73
2023/09/02 01:56:56;;;;;;;9.60;7.27;;;12.80;99.90;;;;;;5034534;28;20248;-73
2023/09/02 01:59:23;;;;;;;11.00;7.27;;;12.80;99.90;;;;;;5033308;28;20205;-73
2023/09/02 02:01:51;;;;;;;8.50;7.30;;;12.90;99.90;;;;;;5034772;28;20198;-73
2023/09/02 02:04:24;;;;;;;9.23;6.53;;;12.90;99.90;;;;;;5034552;28;20205;-73
2023/09/02 02:06:54;;;;;;;11.43;7.00;;;12.80;99.90;;;;;;5034412;28;20694;-74
2023/09/02 02:09:28;;;;;;;15.20;7.27;;;12.80;99.90;;;;;;5034412;28;20198;-74
2023/09/02 02:11:55;;;;;;;10.67;7.07;;;12.80;99.90;;;;;;5034274;28;20197;-73
2023/09/02 02:14:22;;;;;;;14.77;7.30;;;12.80;99.90;;;;;;5034369;28;20230;-74
2023/09/02 02:16:50;;;;;;;8.87;6.27;;;12.80;99.90;;;;;;5034317;28;20202;-74
2023/09/02 02:19:17;;;;;;;7.40;6.70;;;12.70;99.90;;;;;;5034230;28;20202;-74
2023/09/02 02:21:44;;;;;;;8.17;6.53;;;12.70;99.90;;;;;;5033957;28;20767;-73
2023/09/02 02:24:12;;;;;;;8.00;6.10;;;12.70;99.90;;;;;;5034058;28;20252;-74
2023/09/02 02:26:39;;;;;;;8.87;6.40;;;12.60;99.90;;;;;;5033929;28;20202;-73
2023/09/02 02:29:05;;;;;;;9.87;7.10;;;12.60;99.90;;;;;;5034113;28;20202;-74
2023/09/02 02:31:34;;;;;;;7.80;6.87;;;12.60;99.90;;;;;;5034038;28;20195;-74
2023/09/02 02:34:02;;;;;;;11.53;7.07;;;12.60;99.90;;;;;;5033928;28;20202;-73
2023/09/02 02:36:29;;;;;;;11.73;7.73;;;12.60;99.90;;;;;;5033899;28;20252;-74
2023/09/02 02:38:56;;;;;;;9.43;6.80;;;12.50;99.90;;;;;;5033585;28;20736;-74
2023/09/02 02:41:22;;;;;;;10.30;6.40;;;12.60;99.90;;;;;;5033909;28;20264;-74
2023/09/02 02:43:49;;;;;;;9.90;7.10;;;12.60;99.90;;;;;;5033726;28;20268;-74
2023/09/02 02:46:15;;;;;;;10.57;7.17;;;12.60;99.90;;;;;;5033731;28;20202;-73
2023/09/02 02:48:42;;;;;;;9.33;7.00;;;12.50;99.90;;;;;;5033587;28;20249;-73
2023/09/02 02:51:10;;;;;;;12.60;7.40;;;12.50;99.90;;;;;;5033531;28;20198;-74
2023/09/02 02:53:36;;;;;;;10.77;7.83;;;12.40;99.90;;;;;;5033492;28;20290;-73
2023/09/02 02:56:03;;;;;;;14.00;7.73;;;12.50;99.90;;;;;;5033495;28;20225;-73
2023/09/02 02:58:31;;;;;;;9.53;7.43;;;12.40;99.90;;;;;;5033219;28;20605;-74
2023/09/02 03:01:03;;;;;;;13.20;7.80;;;12.30;99.90;;;;;;5033392;28;20202;-73
2023/09/02 03:03:30;;;;;;;10.40;7.83;;;12.30;99.90;;;;;;5033258;28;20233;-74
2023/09/02 03:05:57;;;;;;;11.37;8.20;;;12.20;99.90;;;;;;5033290;28;20195;-73
2023/09/02 03:08:25;;;;;;;11.10;7.67;;;12.30;99.90;;;;;;5033194;28;20248;-74
2023/09/02 03:10:56;;;;;;;14.00;7.53;;;12.20;99.90;;;;;;5033058;28;20210;-74
2023/09/02 03:13:23;;;;;;;10.10;7.90;;;12.20;99.90;;;;;;5033306;28;20202;-73
2023/09/02 03:15:50;;;;;;;11.73;7.90;;;12.20;99.90;;;;;;5033193;28;20253;-73
2023/09/02 03:18:17;;;;;;;10.03;7.77;;;12.20;99.90;;;;;;5033013;28;20206;-74
2023/09/02 03:20:43;;;;;;;8.77;6.57;;;12.30;99.90;;;;;;5032959;28;20206;-73
2023/09/02 03:23:10;;;;;;;10.33;7.20;;;12.30;99.90;;;;;;5032767;28;20781;-73
2023/09/02 03:25:38;;;;;;;10.10;7.10;;;12.20;99.90;;;;;;5033101;28;20198;-73
2023/09/02 03:28:05;;;;;;;10.90;7.30;;;12.10;99.90;;;;;;5032982;28;20195;-73
2023/09/02 03:30:32;;;;;;;8.73;7.17;;;12.20;99.90;;;;;;5032889;28;20198;-73
2023/09/02 03:32:59;;;;;;;8.47;7.00;;;12.20;99.90;;;;;;5032789;28;20194;-73
2023/09/02 03:35:26;;;;;;;9.93;7.47;;;12.10;99.90;;;;;;5032528;28;20697;-73
2023/09/02 03:37:52;;;;;;;9.90;7.20;;;12.10;99.90;;;;;;5032898;28;20270;-74
2023/09/02 03:40:19;;;;;;;8.30;7.17;;;12.10;99.90;;;;;;5032722;28;20655;-75
2023/09/02 03:42:47;;;;;;;11.13;6.70;;;12.00;99.90;;;;;;5032827;28;20252;-74
2023/09/02 03:45:14;;;;;;;12.23;7.83;;;12.00;99.90;;;;;;5032727;28;20202;-74
2023/09/02 03:47:41;;;;;;;11.67;6.80;;;12.00;99.90;;;;;;5032663;28;20202;-74
2023/09/02 03:50:08;;;;;;;9.73;7.57;;;11.90;99.90;;;;;;5032587;28;20199;-75
2023/09/02 03:52:35;;;;;;;11.17;7.70;;;11.90;99.90;;;;;;5032545;28;20712;-74
2023/09/02 03:55:03;;;;;;;11.40;8.07;;;12.00;99.90;;;;;;5032441;28;20251;-75
2023/09/02 03:57:30;;;;;;;9.63;7.63;;;11.90;99.90;;;;;;5032660;28;20213;-74
2023/09/02 03:59:58;;;;;;;10.67;7.30;;;11.90;99.90;;;;;;5032500;28;20202;-75
2023/09/02 04:02:24;;;;;;;10.63;7.97;;;11.90;99.90;;;;;;5032523;28;20658;-75
2023/09/02 04:04:51;;;;;;;11.10;7.70;;;11.80;99.90;;;;;;5032818;28;20206;-75
2023/09/02 04:07:18;;;;;;;10.53;7.33;;;11.90;99.90;;;;;;5032454;28;20720;-75
2023/09/02 04:09:44;;;;;;;12.33;7.20;;;11.90;99.90;;;;;;5032603;28;20199;-75
2023/09/02 04:12:11;;;;;;;10.43;7.73;;;11.80;99.90;;;;;;5032542;28;20210;-76
2023/09/02 04:14:37;;;;;;;12.50;7.33;;;11.80;99.90;;;;;;5032370;28;20320;-75
2023/09/02 04:17:06;;;;;;;10.37;6.97;;;11.90;99.90;;;;;;5032429;28;20581;-75
2023/09/02 04:19:33;;;;;;;9.23;7.30;;;11.90;99.90;;;;;;5032622;28;20253;-76
2023/09/02 04:22:00;;;;;;;11.03;7.63;;;11.90;99.90;;;;;;5034376;28;20234;-75
2023/09/02 04:24:28;;;;;;;10.27;7.30;;;11.90;99.90;;;;;;5036510;28;20609;-75
2023/09/02 04:26:55;;;;;;;11.20;8.53;;;11.90;99.90;;;;;;5036617;28;20256;-76
2023/09/02 04:29:22;;;;;;;13.80;7.83;;;12.00;99.90;;;;;;5036295;28;20289;-75
2023/09/02 04:31:49;;;;;;;9.97;7.80;;;12.10;99.90;;;;;;5036107;28;20617;-76
2023/09/02 04:34:17;;;;;;;9.93;8.07;;;12.00;99.90;;;;;;5036505;28;20206;-76
2023/09/02 04:36:43;;;;;;;11.60;8.00;;;12.00;99.90;;;;;;5036138;28;20756;-76
2023/09/02 04:39:10;;;;;;;9.67;6.93;;;12.10;99.90;;;;;;5036315;28;20244;-76
2023/09/02 04:41:37;;;;;;;11.83;6.20;;;12.00;99.90;;;;;;5036237;28;20654;-75
2023/09/02 04:44:04;;;;;;;7.80;6.50;;;12.00;99.90;;;;;;5036103;28;20198;-75
2023/09/02 04:46:30;;;;;;;7.73;6.23;;;12.10;99.90;;;;;;5036356;28;20260;-75
2023/09/02 04:48:57;;;;;;;7.73;6.40;;;12.10;99.90;;;;;;5036196;28;20601;-75
2023/09/02 04:51:25;;;;;;;11.37;7.10;;;12.00;99.90;;;;;;5035916;28;20198;-76
2023/09/02 04:53:51;;;;;;;13.07;7.93;;;12.10;99.90;;;;;;5036055;28;20194;-73
2023/09/02 04:56:18;;;;;;;8.37;7.07;;;12.10;99.90;;;;;;5036151;28;20226;-76
2023/09/02 04:58:45;;;;;;;12.67;7.97;;;12.10;99.90;;;;;;5035985;28;20198;-74
2023/09/02 05:01:12;;;;;;;8.87;7.53;;;12.20;99.90;;;;;;5036017;28;20257;-74
2023/09/02 05:03:39;;;;;;;8.37;7.07;;;12.30;99.90;;;;;;5036020;28;20206;-74
2023/09/02 05:06:07;;;;;;;8.70;6.83;;;12.30;99.90;;;;;;5035893;28;20199;-74
2023/09/02 05:08:35;;;;;;;8.37;6.47;;;12.30;99.90;;;;;;5036098;28;20650;-75
2023/09/02 05:11:03;;;;;;;11.80;7.37;;;12.20;99.90;;;;;;5035518;28;20206;-75
2023/09/02 05:13:30;;;;;;;8.40;7.20;;;12.30;99.90;;;;;;5035678;28;20214;-75
2023/09/02 05:15:57;;;;;;;9.00;6.73;;;12.40;99.90;;;;;;5035560;28;20288;-75
2023/09/02 05:18:23;;;;;;;10.40;7.27;;;12.50;99.90;;;;;;5035569;28;20194;-75
2023/09/02 05:20:50;;;;;;;9.67;7.03;;;12.50;99.90;;;;;;5035484;28;20199;-75
2023/09/02 05:23:17;;;;;;;8.80;6.70;;;12.60;99.90;;;;;;5035196;28;20281;-75
2023/09/02 05:25:45;;;;;;;9.47;7.17;;;12.60;99.90;;;;;;5035208;28;20720;-76
2023/09/02 05:28:11;;;;;;;11.07;6.97;;;12.60;99.90;;;;;;5035386;28;20194;-75
2023/09/02 05:30:38;;;;;;;11.50;7.33;;;12.60;99.90;;;;;;5035512;28;20247;-76
2023/09/02 05:33:05;;;;;;;9.50;7.00;;;12.60;99.90;;;;;;5035123;28;20245;-76
2023/09/02 05:35:31;;;;;;;7.73;6.93;;;12.70;99.90;;;;;;5035044;28;20218;-74
2023/09/02 05:37:58;;;;;;;9.37;7.17;;;12.70;99.90;;;;;;5035051;28;20264;-75
2023/09/02 05:40:25;;;;;;;8.93;7.13;;;12.70;99.90;;;;;;5034882;28;20708;-75
2023/09/02 05:42:52;;;;;;;8.43;6.77;;;12.80;99.90;;;;;;5035000;28;20198;-75
2023/09/02 05:45:19;;;;;;;8.50;6.93;;;12.90;99.90;;;;;;5034736;28;20718;-75
2023/09/02 05:47:46;;;;;;;8.73;7.30;;;13.00;99.90;;;;;;5034573;28;20198;-74
2023/09/02 05:50:12;;;;;;;7.87;6.97;;;13.00;99.90;;;;;;5034707;28;20615;-75
2023/09/02 05:52:40;;;;;;;8.43;6.87;;;13.10;99.90;;;;;;5034580;28;20286;-75
2023/09/02 05:55:07;;;;;;;7.37;6.60;;;13.20;99.90;;;;;;5034434;28;20280;-75
2023/09/02 05:57:34;;;;;;;7.07;6.30;;;13.30;99.90;;;;;;5034736;28;20561;-75
2023/09/02 06:00:03;;;;;;;6.40;5.80;;;13.30;99.90;;;;;;5034539;28;20202;-75
2023/09/02 06:02:33;;;;;;;6.90;6.30;;;13.40;99.90;;;;;;5034462;28;20198;-75
2023/09/02 06:04:59;;;;;;;6.97;6.27;;;13.40;99.90;;;;;;5034500;28;20202;-75
2023/09/02 06:07:26;;;;;;;6.17;5.57;;;13.50;99.90;;;;;;5034303;28;20206;-75
2023/09/02 06:09:53;;;;;;;6.83;6.13;;;13.60;99.90;;;;;;5034067;28;20654;-75
2023/09/02 06:12:19;;;;;;;7.70;6.90;;;13.70;99.90;;;;;;5034404;28;20249;-76
2023/09/02 06:14:46;;;;;;;7.87;6.63;;;13.80;99.90;;;;;;5034285;28;20221;-75
2023/09/02 06:17:14;;;;;;;6.77;6.17;;;13.90;99.90;;;;;;5034018;28;20226;-75
2023/09/02 06:19:41;;;;;;;6.80;6.13;;;14.00;99.90;;;;;;5033903;28;20198;-75
2023/09/02 06:22:07;;;;;;;6.83;6.23;;;14.10;99.90;;;;;;5033831;28;20281;-75
2023/09/02 06:24:34;;;;;;;7.27;6.57;;;14.20;99.90;;;;;;5033972;28;20721;-75
2023/09/02 06:27:03;;;;;;;9.33;6.30;;;14.40;99.90;;;;;;5033977;28;20211;-75
2023/09/02 06:29:32;;;;;;;8.43;6.97;;;14.50;99.90;;;;;;5033808;28;20672;-75
2023/09/02 06:31:58;;;;;;;6.60;6.00;;;14.60;99.90;;;;;;5033990;28;20206;-75
2023/09/02 06:34:28;;;;;;;6.63;5.80;;;14.80;99.90;;;;;;5033738;28;20248;-76
2023/09/02 06:36:55;;;;;;;7.07;6.20;;;14.80;99.90;;;;;;5034102;28;20230;-75
2023/09/02 06:39:21;;;;;;;7.97;5.40;;;15.00;99.90;;;;;;5033867;28;20202;-75
2023/09/02 06:41:48;;;;;;;5.90;5.30;;;15.10;99.90;;;;;;5033672;28;20818;-75
2023/09/02 06:44:15;;;;;;;6.23;5.33;;;15.20;99.90;;;;;;5032884;28;20245;-75
2023/09/02 06:46:42;;;;;;;5.13;4.45;;;15.30;99.90;;;;;;5033571;28;20203;-75
2023/09/02 06:49:09;;;;;;;5.00;4.23;;;15.50;99.90;;;;;;5033390;28;20198;-75
2023/09/02 06:51:37;;;;;;;4.93;4.47;;;15.60;99.90;;;;;;5033753;28;20194;-75
2023/09/02 06:54:04;;;;;;;4.70;4.28;;;15.70;99.90;;;;;;5033550;28;20248;-75
2023/09/02 06:56:31;;;;;;;5.87;3.93;;;15.90;99.90;;;;;;5033501;28;20225;-74
2023/09/02 06:58:57;;;;;;;4.45;4.03;;;16.10;99.90;;;;;;5033472;28;20654;-75
2023/09/02 07:01:26;;;;;;;3.85;3.55;;;16.10;99.90;;;;;;5033243;28;20260;-75
2023/09/02 07:03:55;;;;;;;4.18;3.80;;;16.20;99.90;;;;;;5033324;28;20680;-75
2023/09/02 07:06:23;;;;;;;5.82;4.10;;;16.40;99.90;;;;;;5033342;28;20225;-75
2023/09/02 07:08:51;;;;;;;4.10;3.70;;;16.70;99.90;;;;;;5033373;28;20225;-75
2023/09/02 07:11:18;;;;;;;3.47;3.17;;;16.80;99.90;;;;;;5033099;28;20597;-74
2023/09/02 07:13:45;;;;;;;5.35;3.92;;;16.90;99.90;;;;;;5033134;28;20260;-74
2023/09/02 07:16:12;;;;;;;4.38;3.63;;;17.00;99.90;;;;;;5033009;28;20559;-75
2023/09/02 07:18:39;;;;;;;4.30;3.70;;;17.20;99.90;;;;;;5033204;28;20203;-75
2023/09/02 07:21:06;;;;;;;4.68;3.30;;;17.40;99.90;;;;;;5032805;28;20244;-74
2023/09/02 07:23:34;;;;;;;5.22;3.60;;;17.50;99.90;;;;;;5033027;28;20252;-75
2023/09/02 07:26:04;;;;;;;3.70;3.35;;;17.50;99.90;;;;;;5032945;28;20210;-74
2023/09/02 07:28:32;;;;;;;5.43;3.53;;;17.70;99.90;;;;;;5033156;28;20230;-74
2023/09/02 07:31:01;;;;;;;4.13;3.72;;;17.80;99.90;;;;;;5032846;28;20308;-74
2023/09/02 07:33:27;;;;;;;4.28;3.88;;;17.80;99.90;;;;;;5033005;28;20286;-75
2023/09/02 07:35:54;;;;;;;4.90;3.83;;;18.10;99.90;;;;;;5032893;28;20268;-75
2023/09/02 07:38:21;;;;;;;3.40;3.10;;;18.30;99.90;;;;;;5040304;28;20198;-74
2023/09/02 07:40:47;;;;;;;3.50;3.20;;;18.50;99.90;;;;;;5048504;28;20200;-74
2023/09/02 07:43:15;;;;;;;3.45;3.13;;;18.70;99.90;;;;;;5077357;28;20607;-74
2023/09/02 07:45:43;;;;;;;4.60;3.28;;;19.00;99.90;;;;;;5072722;28;20278;-74
2023/09/02 07:48:10;;;;;;;3.58;3.13;;;19.10;99.90;;;;;;5058908;28;20267;-75
2023/09/02 07:50:36;;;;;;;3.75;3.45;;;19.20;99.90;;;;;;5052234;28;20649;-74
2023/09/02 07:53:03;;;;;;;6.18;3.08;;;19.20;99.90;;;;;;5052161;28;20205;-73
2023/09/02 07:55:30;;;;;;;2.65;2.45;;;19.30;99.90;;;;;;5051974;28;20198;-74
2023/09/02 07:57:59;;;;;;;3.10;2.60;;;19.20;99.90;;;;;;5052049;28;20703;-75
2023/09/02 08:00:28;;;;;;;3.70;2.88;;;19.30;99.90;;;;;;5052520;28;20194;-75
2023/09/02 08:02:54;;;;;;;2.90;2.50;;;19.50;99.90;;;;;;5052285;28;20605;-77
2023/09/02 08:05:22;;;;;;;3.03;2.53;;;19.60;99.90;;;;;;5052358;28;20208;-75
2023/09/02 08:07:48;;;;;;;2.55;2.35;;;19.90;99.90;;;;;;5052306;28;20252;-73
2023/09/02 08:10:15;;;;;;;2.50;2.30;;;19.90;99.90;;;;;;5052134;28;20223;-75
2023/09/02 08:12:42;;;;;;;2.38;2.00;;;20.10;99.90;;;;;;5052203;28;20193;-74
2023/09/02 08:15:10;;;;;;;2.38;2.13;;;20.40;99.90;;;;;;5052395;28;20236;-74
2023/09/02 08:17:38;;;;;;;3.50;2.50;;;20.70;99.90;;;;;;5051825;28;20758;-73
2023/09/02 08:20:06;;;;;;;3.22;2.60;;;20.70;99.90;;;;;;5052357;28;20207;-73
2023/09/02 08:22:33;;;;;;;3.00;2.70;;;20.60;99.90;;;;;;5051663;28;20229;-73
2023/09/02 08:25:00;;;;;;;5.40;2.33;;;20.60;99.90;;;;;;5052171;28;20197;-74
2023/09/02 08:27:26;;;;;;;2.55;2.35;;;20.50;99.90;;;;;;5052334;28;20240;-73
2023/09/02 08:29:53;;;;;;;2.47;2.28;;;20.70;99.90;;;;;;5052356;28;20255;-73
2023/09/02 08:32:19;;;;;;;2.95;2.55;;;21.00;99.90;;;;;;5052106;28;20483;-73
2023/09/02 08:34:47;;;;;;;2.75;2.20;;;21.00;99.90;;;;;;5052252;28;20193;-75
2023/09/02 08:37:14;;;;;;;2.92;2.33;;;21.30;99.90;;;;;;5052097;28;20222;-75
2023/09/02 08:39:41;;;;;;;5.03;2.53;;;21.50;99.90;;;;;;5051965;28;20247;-74
2023/09/02 08:42:08;;;;;;;3.35;2.15;;;21.50;99.90;;;;;;5052363;28;20209;-75
2023/09/02 08:44:36;;;;;;;2.60;1.83;;;21.90;99.90;;;;;;5052031;28;20194;-75
2023/09/02 08:47:04;;;;;;;4.45;2.05;;;22.10;99.90;;;;;;5052022;28;20305;-74
2023/09/02 08:49:31;;;;;;;2.00;1.80;;;22.30;99.90;;;;;;5051870;28;20202;-75
2023/09/02 08:52:00;;;;;;;4.75;1.80;;;22.70;99.90;;;;;;5051580;28;20201;-75
2023/09/02 08:54:28;;;;;;;2.28;2.00;;;23.00;99.90;;;;;;5051707;28;20601;-75
2023/09/02 08:56:56;;;;;;;3.58;2.00;;;23.50;99.90;;;;;;5051832;28;20228;-76
2023/09/02 08:59:24;;;;;;;2.08;1.88;;;23.70;99.90;;;;;;5051903;28;20206;-75
2023/09/02 09:01:52;;;;;;;3.25;2.13;;;23.80;99.90;;;;;;5052054;28;20202;-75
2023/09/02 09:04:19;;;;;;;2.40;2.00;;;23.70;99.90;;;;;;5051937;28;20205;-74
2023/09/02 09:06:46;;;;;;;3.78;2.05;;;23.40;99.90;;;;;;5052240;28;20212;-74
2023/09/02 09:09:15;;;;;;;2.20;2.00;;;23.30;99.90;;;;;;5055385;28;20605;-74
2023/09/02 09:11:43;;;;;;;3.78;1.92;;;23.90;99.90;;;;;;5055593;28;20613;-75
2023/09/02 09:14:12;;;;;;;1.80;1.70;;;23.90;99.90;;;;;;5055443;28;20256;-74
2023/09/02 09:16:43;;;;;;;5.47;1.85;;;23.80;99.90;;;;;;5055245;28;20335;-74
2023/09/02 09:19:10;;;;;;;1.80;1.60;;;23.50;99.90;;;;;;5054939;28;20202;-74
2023/09/02 09:21:36;;;;;;;1.75;1.65;;;23.50;99.90;;;;;;5055250;28;20229;-75
2023/09/02 09:24:03;;;;;;;2.17;1.63;;;23.90;99.90;;;;;;5055146;28;20712;-75
2023/09/02 09:26:32;;;;;;;2.15;1.75;;;23.90;99.90;;;;;;5055341;28;20264;-75
2023/09/02 09:28:59;;;;;;;1.70;1.60;;;24.10;99.90;;;;;;5055175;28;20220;-75
2023/09/02 09:31:27;;;;;;;1.88;1.77;;;24.70;99.90;;;;;;5055052;28;20248;-74
2023/09/02 09:33:58;;;;;;;1.80;1.33;;;24.80;99.90;;;;;;5055277;28;20243;-75
2023/09/02 09:36:25;;;;;;;2.13;1.70;;;24.60;99.90;;;;;;5055045;28;20202;-75
2023/09/02 09:38:54;;;;;;;1.70;1.55;;;24.50;99.90;;;;;;5054905;28;20209;-74
2023/09/02 09:41:22;;;;;;;2.33;1.48;;;24.80;99.90;;;;;;5054889;28;20251;-74
2023/09/02 09:44:03;;;;;;;1.95;1.42;;;24.70;99.90;;;;;;5054629;28;20629;-75
2023/09/02 09:46:30;;;;;;;1.65;1.55;;;24.70;99.90;;;;;;5055067;28;20198;-75
2023/09/02 09:49:01;;;;;;;1.75;1.50;;;24.60;99.90;;;;;;5055006;28;20209;-75
2023/09/02 09:51:28;;;;;;;1.98;1.48;;;25.20;99.90;;;;;;5054953;28;20296;-75
2023/09/02 09:53:55;;;;;;;1.40;1.30;;;25.40;99.90;;;;;;5054557;28;20194;-76
2023/09/02 09:56:22;;;;;;;2.95;1.38;;;25.70;99.90;;;;;;5054628;28;20201;-75
2023/09/02 09:58:49;;;;;;;1.65;1.55;;;25.70;99.90;;;;;;5054485;28;20255;-75
2023/09/02 10:01:23;;;;;;;1.70;1.60;;;25.20;99.90;;;;;;5054523;28;20530;-75
2023/09/02 10:03:51;;;;;;;1.83;1.52;;;25.70;99.90;;;;;;5054624;28;20247;-75
2023/09/02 10:06:18;;;;;;;2.03;1.60;;;26.10;99.90;;;;;;5054447;28;20661;-75
2023/09/02 10:08:58;;;;;;;4.55;1.77;;;26.10;99.90;;;;;;5054262;28;20296;-75
2023/09/02 10:11:26;;;;;;;1.40;1.30;;;26.20;99.90;;;;;;5054538;28;20197;-75
2023/09/02 10:13:54;;;;;;;1.80;1.50;;;26.50;99.90;;;;;;5054337;28;20206;-76
2023/09/02 10:16:24;;;;;;;2.38;1.50;;;26.70;99.90;;;;;;5054447;28;20198;-76
2023/09/02 10:18:51;;;;;;;2.30;1.55;;;27.40;99.90;;;;;;5053420;28;20201;-75
2023/09/02 10:21:19;;;;;;;2.38;1.40;;;27.90;99.90;;;;;;5053923;28;20266;-76
2023/09/02 10:23:50;;;;;;;1.92;1.50;;;27.40;99.90;;;;;;5053920;28;20681;-75
2023/09/02 10:26:22;;;;;;;2.25;1.50;;;26.80;99.90;;;;;;5054468;28;20255;-75
2023/09/02 10:28:50;;;;;;;2.17;1.38;;;26.70;99.90;;;;;;5054291;28;20205;-75
2023/09/02 10:31:22;;;;;;;1.45;1.25;;;27.70;99.90;;;;;;5054196;28;20194;-75
2023/09/02 10:33:57;;;;;;;2.08;1.33;;;28.80;99.90;;;;;;5054199;28;20209;-75
2023/09/02 10:36:27;;;;;;;1.60;1.50;;;28.80;99.90;;;;;;5054364;28;20250;-75
2023/09/02 10:38:56;;;;;;;3.22;1.50;;;28.40;99.90;;;;;;5054001;28;20283;-75
2023/09/02 10:41:25;;;;;;;1.90;1.40;;;28.80;99.90;;;;;;5053679;28;20228;-75
2023/09/02 10:43:52;;;;;;;1.60;1.50;;;27.50;99.90;;;;;;5053995;28;20202;-75
2023/09/02 10:46:19;;;;;;;2.53;1.40;;;28.00;99.90;;;;;;5053905;28;20259;-75
2023/09/02 10:48:48;;;;;;;1.85;1.50;;;28.90;99.90;;;;;;5053751;28;20197;-75
2023/09/02 10:51:15;;;;;;;2.58;1.50;;;29.40;99.90;;;;;;5054005;28;20207;-76
2023/09/02 10:53:59;;;;;;;2.13;1.50;;;29.90;99.90;;;;;;5053890;28;20250;-75
2023/09/02 10:56:27;;;;;;;1.95;1.40;;;29.90;99.90;;;;;;5053671;28;20197;-75
2023/09/02 10:58:54;;;;;;;1.50;1.40;;;31.20;99.90;;;;;;5053521;28;20765;-74
2023/09/02 11:01:21;;;;;;;1.77;1.40;;;31.60;99.90;;;;;;5053868;28;20197;-75
2023/09/02 11:03:50;;;;;;;2.92;1.40;;;31.60;99.90;;;;;;5053802;28;20266;-75
2023/09/02 11:06:17;;;;;;;2.63;1.50;;;30.10;99.90;;;;;;5053600;28;20251;-75
2023/09/02 11:08:49;;;;;;;1.55;1.38;;;30.20;99.90;;;;;;5053647;28;20198;-75
2023/09/02 11:11:16;;;;;;;1.52;1.42;;;30.20;99.90;;;;;;5053465;28;20756;-75
2023/09/02 11:14:20;;;;;;;1.88;1.50;;;30.50;99.90;;;;;;5053294;28;20201;-75
2023/09/02 11:17:28;;;;;;;1.60;1.50;;;29.90;99.90;;;;;;5053254;28;20589;-75
2023/09/02 11:20:01;;;;;;;3.17;1.40;;;28.60;99.90;;;;;;5053211;28;20198;-74
2023/09/02 11:22:47;;;;;;;2.03;1.40;;;29.10;99.90;;;;;;5052893;28;20228;-75
2023/09/02 11:25:28;;;;;;;1.77;1.60;;;30.10;99.90;;;;;;5053099;28;20235;-75
2023/09/02 11:27:55;;;;;;;1.70;1.20;;;30.50;99.90;;;;;;5052995;28;20204;-75
2023/09/02 11:30:22;;;;;;;2.53;1.30;;;29.70;99.90;;;;;;5052588;28;20197;-75
2023/09/02 11:32:49;;;;;;;1.35;1.25;;;30.60;99.90;;;;;;5053155;28;20223;-75
2023/09/02 11:35:24;;;;;;;2.35;1.20;;;31.80;99.90;;;;;;5053072;28;20526;-75
2023/09/02 11:37:51;;;;;;;1.40;1.30;;;33.20;99.90;;;;;;5052817;28;20243;-75
2023/09/02 11:40:20;;;;;;;2.20;1.42;;;33.00;99.70;;;;;;5052969;28;20201;-75
2023/09/02 11:42:54;;;;;;;1.60;1.50;;;32.40;99.90;;;;;;5052976;28;20235;-75
2023/09/02 11:45:21;;;;;;;1.80;1.25;;;32.10;99.30;;;;;;5053124;28;20270;-75
2023/09/02 11:47:49;;;;;;;1.50;1.40;;;33.90;99.30;;;;;;5053045;28;20193;-75
2023/09/02 11:50:19;;;;;;;1.42;1.33;;;32.60;98.30;;;;;;5053003;28;20237;-74
2023/09/02 11:52:47;;;;;;;2.42;1.20;;;31.90;99.00;;;;;;5052567;28;20205;-75
2023/09/02 11:55:15;;;;;;;1.98;1.30;;;33.70;98.50;;;;;;5052588;28;20196;-75
2023/09/02 11:57:42;;;;;;;2.03;1.50;;;34.50;97.20;;;;;;5052650;28;20220;-76
2023/09/02 12:00:15;;;;;;;3.15;1.40;;;35.70;96.30;;;;;;5052613;28;20205;-76
2023/09/02 12:02:42;;;;;;;3.08;1.83;;;36.00;95.20;;;;;;5052571;28;20197;-76
2023/09/02 12:05:09;;;;;;;2.55;1.60;;;36.10;93.90;;;;;;5052601;28;20258;-77
2023/09/02 12:07:39;;;;;;;4.68;1.60;;;35.20;93.70;;;;;;5052500;28;20243;-78
2023/09/02 12:10:07;;;;;;;1.90;1.40;;;35.40;93.60;;;;;;5052262;28;20588;-77
2023/09/02 12:12:35;;;;;;;1.63;1.45;;;35.60;92.30;;;;;;5052665;28;20197;-77
2023/09/02 12:15:03;;;;;;;2.33;1.48;;;36.00;91.90;;;;;;5052551;28;20275;-77
2023/09/02 12:17:30;;;;;;;1.30;1.20;;;36.30;91.00;;;;;;5052452;28;20228;-76
2023/09/02 12:19:57;;;;;;;2.55;1.33;;;32.50;93.00;;;;;;5052368;28;20201;-77
2023/09/02 12:22:23;;;;;;;2.65;1.40;;;31.70;95.30;;;;;;5050775;28;20237;-76
2023/09/02 12:24:52;;;;;;;1.67;1.50;;;29.80;96.00;;;;;;5052648;28;20247;-77
2023/09/02 12:27:18;;;;;;;1.50;1.40;;;29.90;97.20;;;;;;5052658;28;20280;-77
2023/09/02 12:29:54;;;;;;;1.73;1.55;;;31.60;95.80;;;;;;5052457;28;20259;-77
2023/09/02 12:32:21;;;;;;;1.30;1.20;;;33.70;95.20;;;;;;5052495;28;20207;-77
2023/09/02 12:34:48;;;;;;;1.75;1.30;;;34.60;92.60;;;;;;5052171;28;20201;-77
2023/09/02 12:37:16;;;;;;;1.42;1.33;;;35.80;92.20;;;;;;5052410;28;20254;-77
2023/09/02 12:39:42;;;;;;;1.75;1.50;;;37.80;90.30;;;;;;5051854;28;20711;-77
2023/09/02 12:42:16;;;;;;;2.10;2.00;;;38.00;89.10;;;;;;5052527;28;20201;-77
2023/09/02 12:44:50;;;;;;;1.83;1.60;;;38.90;86.60;;;;;;5055911;28;20227;-78
2023/09/02 12:47:21;;;;;;;3.75;1.73;;;36.20;84.20;;;;;;5055900;28;20338;-76
2023/09/02 12:49:48;;;;;;;2.10;1.67;;;34.70;87.80;;;;;;5056382;28;20652;-77